Fairhaven, Washington
Current Conditions -  °F | °C
As of 6:53 AM on Thursday 30 Oct 2014 (Local Time) from KBLI Reporting Station
Broken Clouds Broken Clouds  
Wind Chill: 53°   Ceiling: 9500
Heat Index: 53°   Visibility: 10mi
Dew Point: 44°   Wind: 9mph
Humidity: 71%   Direction: 30°NNE
Pressure: 29.86"   Gusts: NA
Location:  48.7531°N, 122.502°W
Report Text: KBLI 301353Z AUTO 03008KT 10SM SCT055 BKN095 BKN120 12/07 A2986 RMK AO2 SLP119 T01170067
Loading
Personal Weather Stations






























Interactive Weather Map New forecast layout! Learn more

10-Day Weather Forecast

Advertisements
Track Severe Weather on mobile